Time,TemperatureF,DewpointF,PressureIn,WindDirection,WindDirectionDegrees,WindSpeedMPH,WindSpeedGustMPH,Humidity,HourlyPrecipIn,Conditions,Clouds,dailyrainin,SolarRadiationWatts/m^2,SoftwareType,DateUTC
2013-02-10 00:10:00,15.6,9.0,29.81,NNW,327,2.0,4.0,76,0.00,,,0.00,0,weatherlink.com 1.10,2013-02-10 05:10:00,
2013-02-10 00:25:00,15.3,9.0,29.81,NW,318,1.0,4.0,77,0.00,,,0.00,0,weatherlink.com 1.10,2013-02-10 05:25:00,
2013-02-10 00:40:00,15.1,9.0,29.81,NW,324,1.0,5.0,77,0.00,,,0.00,0,weatherlink.com 1.10,2013-02-10 05:40:00,
2013-02-10 00:55:00,14.9,9.0,29.81,NW,314,0.0,3.0,78,0.00,,,0.00,0,weatherlink.com 1.10,2013-02-10 05:55:00,
2013-02-10 01:10:00,14.8,9.0,29.81,WNW,297,1.0,5.0,77,0.00,,,0.00,0,weatherlink.com 1.10,2013-02-10 06:10:00,
2013-02-10 01:25:00,14.7,9.0,29.82,WNW,302,1.0,3.0,78,0.00,,,0.00,0,weatherlink.com 1.10,2013-02-10 06:25:00,
2013-02-10 01:40:00,14.5,9.0,29.82,NNW,341,0.0,3.0,78,0.00,,,0.00,0,weatherlink.com 1.10,2013-02-10 06:40:00,
2013-02-10 01:55:00,14.3,9.0,29.83,NNW,338,2.0,3.0,78,0.00,,,0.00,0,weatherlink.com 1.10,2013-02-10 06:55:00,
2013-02-10 02:10:00,14.1,8.0,29.83,WNW,294,0.0,3.0,78,0.00,,,0.00,0,weatherlink.com 1.10,2013-02-10 07:10:00,
2013-02-10 02:25:00,13.9,8.0,29.83,NW,307,1.0,4.0,78,0.00,,,0.00,0,weatherlink.com 1.10,2013-02-10 07:25:00,
2013-02-10 02:40:00,13.8,8.0,29.84,NW,321,1.0,4.0,79,0.00,,,0.00,0,weatherlink.com 1.10,2013-02-10 07:40:00,
2013-02-10 02:55:00,13.6,8.0,29.84,NNW,342,1.0,4.0,79,0.00,,,0.00,0,weatherlink.com 1.10,2013-02-10 07:55:00,
2013-02-10 03:10:00,13.6,9.0,29.84,WNW,302,0.0,4.0,80,0.00,,,0.00,0,weatherlink.com 1.10,2013-02-10 08:10:00,
2013-02-10 03:25:00,13.4,8.0,29.84,NW,326,0.0,8.0,79,0.00,,,0.00,0,weatherlink.com 1.10,2013-02-10 08:25:00,
2013-02-10 03:40:00,13.2,8.0,29.84,NW,319,2.0,6.0,78,0.00,,,0.00,0,weatherlink.com 1.10,2013-02-10 08:40:00,
2013-02-10 03:55:00,13.0,7.0,29.84,NW,321,0.0,6.0,78,0.00,,,0.00,0,weatherlink.com 1.10,2013-02-10 08:55:00,
2013-02-10 04:10:00,13.0,7.0,29.84,North,350,0.0,5.0,78,0.00,,,0.00,0,weatherlink.com 1.10,2013-02-10 09:10:00,
2013-02-10 04:25:00,13.0,7.0,29.84,NNW,342,0.0,6.0,78,0.00,,,0.00,0,weatherlink.com 1.10,2013-02-10 09:25:00,
2013-02-10 04:40:00,13.1,7.0,29.84,North,9,0.0,6.0,78,0.00,,,0.00,0,weatherlink.com 1.10,2013-02-10 09:40:00,
2013-02-10 04:55:00,13.2,7.0,29.84,NNW,348,1.0,8.0,77,0.00,,,0.00,0,weatherlink.com 1.10,2013-02-10 09:55:00,
2013-02-10 05:11:00,13.4,7.0,29.84,NNW,345,4.0,14.0,76,0.00,,,0.00,0,weatherlink.com 1.10,2013-02-10 10:11:00,
2013-02-10 05:26:00,13.7,7.0,29.84,North,11,2.0,8.0,76,0.00,,,0.00,0,weatherlink.com 1.10,2013-02-10 10:26:00,
2013-02-10 05:41:00,13.7,7.0,29.85,North,350,0.0,9.0,75,0.00,,,0.00,0,weatherlink.com 1.10,2013-02-10 10:41:00,
2013-02-10 05:55:00,13.6,7.0,29.86,North,360,4.0,8.0,75,0.00,,,0.00,0,weatherlink.com 1.10,2013-02-10 10:55:00,
2013-02-10 06:10:00,13.4,7.0,29.86,NNE,17,0.0,8.0,75,0.00,,,0.00,0,weatherlink.com 1.10,2013-02-10 11:10:00,
2013-02-10 06:25:00,13.4,7.0,29.88,NNW,343,2.0,6.0,75,0.00,,,0.00,0,weatherlink.com 1.10,2013-02-10 11:25:00,
2013-02-10 06:40:00,13.4,6.0,29.89,WNW,295,0.0,5.0,73,0.00,,,0.00,0,weatherlink.com 1.10,2013-02-10 11:40:00,
2013-02-10 06:55:00,13.2,6.0,29.90,North,5,0.0,3.0,73,0.00,,,0.00,5,weatherlink.com 1.10,2013-02-10 11:55:00,
2013-02-10 07:10:00,13.0,6.0,29.90,NW,306,3.0,4.0,74,0.00,,,0.00,14,weatherlink.com 1.10,2013-02-10 12:10:00,
2013-02-10 07:26:00,13.3,6.0,29.90,NW,325,1.0,5.0,73,0.00,,,0.00,23,weatherlink.com 1.10,2013-02-10 12:26:00,
2013-02-10 07:41:00,13.7,7.0,29.90,NNE,24,1.0,6.0,73,0.00,,,0.00,30,weatherlink.com 1.10,2013-02-10 12:41:00,
2013-02-10 07:56:00,14.3,7.0,29.90,NNW,332,3.0,9.0,74,0.00,,,0.00,62,weatherlink.com 1.10,2013-02-10 12:56:00,
2013-02-10 08:11:00,15.5,8.0,29.90,NE,51,1.0,7.0,72,0.00,,,0.00,128,weatherlink.com 1.10,2013-02-10 13:11:00,
2013-02-10 08:26:00,17.6,8.0,29.92,ENE,59,0.0,6.0,65,0.00,,,0.00,192,weatherlink.com 1.10,2013-02-10 13:26:00,
2013-02-10 08:41:00,18.6,8.0,29.93,West,281,0.0,5.0,63,0.00,,,0.00,243,weatherlink.com 1.10,2013-02-10 13:41:00,
2013-02-10 08:56:00,19.4,8.0,29.93,NW,326,0.0,5.0,61,0.00,,,0.00,200,weatherlink.com 1.10,2013-02-10 13:56:00,
2013-02-10 09:11:00,20.2,7.0,29.94,WNW,294,0.0,4.0,58,0.00,,,0.00,207,weatherlink.com 1.10,2013-02-10 14:11:00,
2013-02-10 09:26:00,20.7,7.0,29.94,NNW,331,1.0,6.0,55,0.00,,,0.00,274,weatherlink.com 1.10,2013-02-10 14:26:00,
2013-02-10 09:41:00,22.2,7.0,29.95,WNW,296,0.0,3.0,52,0.00,,,0.00,383,weatherlink.com 1.10,2013-02-10 14:41:00,
2013-02-10 09:56:00,22.9,7.0,29.95,North,5,2.0,4.0,51,0.00,,,0.00,323,weatherlink.com 1.10,2013-02-10 14:56:00,
2013-02-10 10:11:00,23.8,7.0,29.95,NNW,328,1.0,5.0,49,0.00,,,0.00,392,weatherlink.com 1.10,2013-02-10 15:11:00,
2013-02-10 10:26:00,24.7,7.0,29.95,NE,40,0.0,6.0,48,0.00,,,0.00,357,weatherlink.com 1.10,2013-02-10 15:26:00,
2013-02-10 10:41:00,25.9,7.0,29.95,NNE,15,0.0,6.0,45,0.00,,,0.00,320,weatherlink.com 1.10,2013-02-10 15:41:00,
2013-02-10 10:59:00,26.5,8.0,29.95,NNW,340,1.0,3.0,46,0.00,,,0.00,311,weatherlink.com 1.10,2013-02-10 15:59:00,
2013-02-10 11:11:00,27.7,8.0,29.96,NNW,348,3.0,4.0,44,0.00,,,0.00,327,weatherlink.com 1.10,2013-02-10 16:11:00,
2013-02-10 11:26:00,28.4,9.0,29.95,NNW,338,1.0,3.0,44,0.00,,,0.00,241,weatherlink.com 1.10,2013-02-10 16:26:00,
2013-02-10 11:41:00,28.7,7.0,29.94,NNW,335,0.0,5.0,40,0.00,,,0.00,471,weatherlink.com 1.10,2013-02-10 16:41:00,
2013-02-10 11:56:00,29.1,5.0,29.94,East,86,3.0,3.0,36,0.00,,,0.00,499,weatherlink.com 1.10,2013-02-10 16:56:00,
2013-02-10 12:11:00,30.2,7.0,29.93,NNW,336,0.0,3.0,37,0.00,,,0.00,51,weatherlink.com 1.10,2013-02-10 17:11:00,
2013-02-10 12:26:00,30.1,8.0,29.92,East,88,0.0,5.0,39,0.00,,,0.00,462,weatherlink.com 1.10,2013-02-10 17:26:00,
2013-02-10 12:42:00,31.9,7.0,29.91,East,86,0.0,2.0,35,0.00,,,0.00,369,weatherlink.com 1.10,2013-02-10 17:42:00,
2013-02-10 12:57:00,32.8,9.0,29.91,NNW,328,2.0,4.0,37,0.00,,,0.00,436,weatherlink.com 1.10,2013-02-10 17:57:00,
2013-02-10 13:12:00,32.0,6.0,29.90,ENE,63,0.0,3.0,34,0.00,,,0.00,485,weatherlink.com 1.10,2013-02-10 18:12:00,
2013-02-10 13:27:00,32.2,8.0,29.89,ENE,70,0.0,3.0,36,0.00,,,0.00,260,weatherlink.com 1.10,2013-02-10 18:27:00,
2013-02-10 13:42:00,32.8,10.0,29.89,NW,325,1.0,3.0,39,0.00,,,0.00,149,weatherlink.com 1.10,2013-02-10 18:42:00,
2013-02-10 13:57:00,33.3,6.0,29.89,ENE,63,0.0,2.0,32,0.00,,,0.00,352,weatherlink.com 1.10,2013-02-10 18:57:00,
2013-02-10 14:12:00,33.5,6.0,29.89,North,355,0.0,2.0,31,0.00,,,0.00,281,weatherlink.com 1.10,2013-02-10 19:12:00,
2013-02-10 14:27:00,34.0,6.0,29.89,NE,37,0.0,3.0,31,0.00,,,0.00,135,weatherlink.com 1.10,2013-02-10 19:27:00,
2013-02-10 14:42:00,34.6,11.0,29.90,NNW,344,0.0,3.0,38,0.00,,,0.00,141,weatherlink.com 1.10,2013-02-10 19:42:00,
2013-02-10 14:57:00,34.2,13.0,29.89,WNW,297,0.0,3.0,42,0.00,,,0.00,118,weatherlink.com 1.10,2013-02-10 19:57:00,
2013-02-10 15:12:00,34.0,15.0,29.88,WNW,288,0.0,2.0,46,0.00,,,0.00,63,weatherlink.com 1.10,2013-02-10 20:12:00,
2013-02-10 15:27:00,33.3,12.0,29.88,WSW,249,0.0,1.0,42,0.00,,,0.00,40,weatherlink.com 1.10,2013-02-10 20:27:00,
2013-02-10 15:42:00,33.0,13.0,29.87,WSW,249,0.0,0.0,43,0.00,,,0.00,39,weatherlink.com 1.10,2013-02-10 20:42:00,
2013-02-10 15:57:00,33.9,12.0,29.87,WSW,249,0.0,1.0,41,0.00,,,0.00,32,weatherlink.com 1.10,2013-02-10 20:57:00,
2013-02-10 16:12:00,33.5,13.0,29.88,West,278,0.0,2.0,42,0.00,,,0.00,25,weatherlink.com 1.10,2013-02-10 21:12:00,
2013-02-10 16:27:00,33.0,13.0,29.88,SW,227,0.0,2.0,43,0.00,,,0.00,19,weatherlink.com 1.10,2013-02-10 21:27:00,
2013-02-10 16:42:00,32.1,13.0,29.87,SW,227,0.0,0.0,46,0.00,,,0.00,18,weatherlink.com 1.10,2013-02-10 21:42:00,
2013-02-10 16:57:00,31.4,14.0,29.87,SW,227,0.0,0.0,48,0.00,,,0.00,12,weatherlink.com 1.10,2013-02-10 21:57:00,
2013-02-10 17:12:00,30.3,13.0,29.87,SW,227,0.0,0.0,49,0.00,,,0.00,9,weatherlink.com 1.10,2013-02-10 22:12:00,
2013-02-10 17:27:00,29.7,12.0,29.88,SW,227,0.0,0.0,47,0.00,,,0.00,0,weatherlink.com 1.10,2013-02-10 22:27:00,
2013-02-10 17:42:00,28.8,9.0,29.88,SW,227,0.0,0.0,44,0.00,,,0.00,0,weatherlink.com 1.10,2013-02-10 22:42:00,
2013-02-10 17:57:00,28.5,10.0,29.87,SW,227,0.0,0.0,45,0.00,,,0.00,0,weatherlink.com 1.10,2013-02-10 22:57:00,
2013-02-10 18:12:00,28.1,10.0,29.88,SW,227,0.0,0.0,46,0.00,,,0.00,0,weatherlink.com 1.10,2013-02-10 23:12:00,
2013-02-10 18:29:00,28.1,10.0,29.88,SW,227,0.0,0.0,46,0.00,,,0.00,0,weatherlink.com 1.10,2013-02-10 23:29:00,
2013-02-10 18:42:00,27.4,10.0,29.88,SW,227,0.0,0.0,49,0.00,,,0.00,0,weatherlink.com 1.10,2013-02-10 23:42:00,
2013-02-10 18:57:00,27.4,11.0,29.88,SW,227,0.0,0.0,51,0.00,,,0.00,0,weatherlink.com 1.10,2013-02-10 23:57:00,
2013-02-10 19:12:00,27.2,12.0,29.88,SW,227,0.0,0.0,53,0.00,,,0.00,0,weatherlink.com 1.10,2013-02-11 00:12:00,
2013-02-10 19:27:00,27.2,12.0,29.88,SW,227,0.0,0.0,52,0.00,,,0.00,0,weatherlink.com 1.10,2013-02-11 00:27:00,
2013-02-10 19:43:00,27.0,11.0,29.88,SW,227,0.0,0.0,52,0.00,,,0.00,0,weatherlink.com 1.10,2013-02-11 00:43:00,
2013-02-10 19:58:00,26.7,12.0,29.88,SW,227,0.0,0.0,53,0.00,,,0.00,0,weatherlink.com 1.10,2013-02-11 00:58:00,
2013-02-10 20:13:00,26.6,13.0,29.88,SW,227,0.0,0.0,57,0.00,,,0.00,0,weatherlink.com 1.10,2013-02-11 01:13:00,
2013-02-10 20:28:00,26.6,13.0,29.88,SW,227,0.0,0.0,58,0.00,,,0.00,0,weatherlink.com 1.10,2013-02-11 01:28:00,
2013-02-10 20:43:00,27.1,14.0,29.87,SW,227,0.0,0.0,58,0.00,,,0.00,0,weatherlink.com 1.10,2013-02-11 01:43:00,
2013-02-10 20:58:00,26.9,15.0,29.86,SW,227,0.0,0.0,60,0.00,,,0.00,0,weatherlink.com 1.10,2013-02-11 01:58:00,
2013-02-10 21:13:00,27.0,17.0,29.86,SW,227,0.0,0.0,65,0.00,,,0.00,0,weatherlink.com 1.10,2013-02-11 02:13:00,
2013-02-10 21:28:00,27.0,17.0,29.86,SW,227,0.0,0.0,67,0.00,,,0.00,0,weatherlink.com 1.10,2013-02-11 02:28:00,
2013-02-10 21:43:00,26.0,16.0,29.86,SW,227,0.0,0.0,67,0.00,,,0.00,0,weatherlink.com 1.10,2013-02-11 02:43:00,
2013-02-10 21:58:00,26.4,17.0,29.85,SW,227,0.0,0.0,69,0.00,,,0.00,0,weatherlink.com 1.10,2013-02-11 02:58:00,
2013-02-10 22:13:00,26.9,18.0,29.86,SW,227,0.0,0.0,69,0.00,,,0.00,0,weatherlink.com 1.10,2013-02-11 03:13:00,
2013-02-10 22:28:00,27.0,19.0,29.85,SW,230,0.0,2.0,72,0.00,,,0.00,0,weatherlink.com 1.10,2013-02-11 03:28:00,
2013-02-10 22:43:00,26.5,18.0,29.84,SW,230,0.0,0.0,71,0.00,,,0.00,0,weatherlink.com 1.10,2013-02-11 03:43:00,
2013-02-10 22:58:00,26.8,18.0,29.83,SW,230,0.0,0.0,68,0.00,,,0.00,0,weatherlink.com 1.10,2013-02-11 03:58:00,
2013-02-10 23:13:00,27.0,18.0,29.83,SW,230,0.0,0.0,70,0.00,,,0.00,0,weatherlink.com 1.10,2013-02-11 04:13:00,
2013-02-10 23:28:00,27.4,19.0,29.83,SW,230,0.0,0.0,71,0.00,,,0.00,0,weatherlink.com 1.10,2013-02-11 04:28:00,
2013-02-10 23:43:00,27.8,20.0,29.83,SW,230,0.0,0.0,72,0.00,,,0.00,0,weatherlink.com 1.10,2013-02-11 04:43:00,
2013-02-10 23:59:00,27.9,21.0,29.83,SW,230,0.0,0.0,74,0.00,,,0.00,0,weatherlink.com 1.10,2013-02-11 04:59:00,